Time;durP1;ratioP1;P1;durP2;ratioP2;P2;SDS_P1;SDS_P2;PMS_P1;PMS_P2;Temp;Humidity;BMP_temperature;BMP_pressure;BME280_temperature;BME280_humidity;BME280_pressure;Samples;Min_cycle;Max_cycle;Signal;HPM_P1;HPM_P2
2022/04/01 16:35:02;;;;;;;1.90;1.80;;;;;;;-146.23;100.00;72967.59;2615813;47;20231;-80
2022/04/01 16:40:55;;;;;;;6.77;4.37;;;;;;;-146.23;100.00;72967.59;2614073;47;20164;-80
2022/04/01 16:43:26;;;;;;;9.13;8.10;;;;;;;-146.23;100.00;72967.59;2613905;54;20181;-80
2022/04/01 16:45:57;;;;;;;3.03;2.43;;;;;;;-146.23;100.00;72967.59;2614763;54;20177;-81
2022/04/01 16:48:39;;;;;;;;;;;;;;;;;;;;;
2022/04/01 16:54:43;;;;;;;2.23;2.03;;;;;;;-146.23;100.00;72967.59;2617053;47;20121;-82
2022/04/01 17:13:31;;;;;;;1.53;1.43;;;;;;;-146.23;100.00;72967.59;2614484;47;20154;-79
2022/04/01 17:23:10;;;;;;;;;;;;;;;;;;;;;
2022/04/01 17:25:47;;;;;;;1.50;1.20;;;;;;;-146.23;100.00;72967.59;2614866;47;20200;-81
2022/04/01 17:28:17;;;;;;;1.23;1.13;;;;;;;-146.23;100.00;72967.59;2616707;47;20264;-83
2022/04/01 17:30:59;;;;;;;3.08;2.40;;;;;;;-146.23;100.00;72967.59;2615909;47;20411;-79
2022/04/01 17:33:29;;;;;;;4.97;1.30;;;;;;;-146.23;100.00;72967.59;2616788;39;20590;-79
2022/04/01 18:39:33;;;;;;;0.40;0.40;;;;;;;-146.23;100.00;72967.59;2615292;54;20247;-78
2022/04/01 18:42:32;;;;;;;0.40;0.40;;;;;;;-146.23;100.00;72967.59;2616086;46;20168;-78
2022/04/01 18:45:05;;;;;;;0.50;0.50;;;;;;;-146.23;100.00;72967.59;2616211;54;20156;-77
2022/04/01 18:54:20;;;;;;;0.43;0.43;;;;;;;-146.23;100.00;72967.59;2614770;54;20428;-78
2022/04/01 18:57:22;;;;;;;3.50;0.60;;;;;;;-146.23;100.00;72967.59;2615700;47;20676;-79
2022/04/01 18:59:52;;;;;;;0.47;0.47;;;;;;;-146.23;100.00;72967.59;2614502;47;20176;-79
2022/04/01 19:02:47;;;;;;;0.50;0.50;;;;;;;-146.23;100.00;72967.59;2616058;47;20252;-79
2022/04/01 19:06:03;;;;;;;0.67;0.67;;;;;;;-146.23;100.00;72967.59;2616002;47;20195;-79
2022/04/01 19:09:05;;;;;;;0.50;0.50;;;;;;;-146.23;100.00;72967.59;2615847;39;20549;-80
2022/04/01 19:11:52;;;;;;;0.40;0.40;;;;;;;-146.23;100.00;72967.59;2616649;54;20161;-77
2022/04/01 19:14:30;;;;;;;0.50;0.50;;;;;;;-146.23;100.00;72967.59;2616348;47;20172;-82
2022/04/01 19:17:09;;;;;;;0.67;0.67;;;;;;;-146.23;100.00;72967.59;2616078;47;21403;-81
2022/04/01 19:19:39;;;;;;;0.30;0.30;;;;;;;-146.23;100.00;72967.59;2616576;54;20153;-81
2022/04/01 19:26:08;;;;;;;0.30;0.30;;;;;;;-146.23;100.00;72967.59;2613886;47;20156;-79
2022/04/01 19:28:46;;;;;;;0.70;0.60;;;;;;;-146.23;100.00;72967.59;2614198;54;20955;-80
2022/04/01 19:31:40;;;;;;;0.60;0.60;;;;;;;-146.23;100.00;72967.59;2615040;47;20279;-79
2022/04/01 19:34:09;;;;;;;0.50;0.50;;;;;;;-146.23;100.00;72967.59;2615496;47;20165;-78
2022/04/01 19:36:38;;;;;;;0.40;0.40;;;;;;;-146.23;100.00;72967.59;2615310;47;20161;-77
2022/04/01 19:39:06;;;;;;;1.27;1.27;;;;;;;-146.23;100.00;72967.59;2615142;54;20192;-77
2022/04/01 19:41:38;;;;;;;1.30;1.30;;;;;;;-146.23;100.00;72967.59;2615164;47;20291;-79
2022/04/01 19:44:07;;;;;;;0.73;0.73;;;;;;;-146.23;100.00;72967.59;2615490;54;20175;-81
2022/04/01 19:46:58;;;;;;;0.30;0.30;;;;;;;-146.23;100.00;72967.59;2615646;54;20153;-81
2022/04/01 19:49:27;;;;;;;0.40;0.40;;;;;;;-146.23;100.00;72967.59;2615539;54;20172;-80
2022/04/01 19:51:58;;;;;;;0.47;0.47;;;;;;;-146.23;100.00;72967.59;2615177;47;20409;-81
2022/04/01 20:11:46;;;;;;;0.90;0.83;;;;;;;-146.23;100.00;72967.59;2616167;47;20161;-81
2022/04/01 20:14:16;;;;;;;0.57;0.57;;;;;;;-146.23;100.00;72967.59;2617450;54;20168;-83
2022/04/01 20:16:45;;;;;;;0.90;0.90;;;;;;;-146.23;100.00;72967.59;2615177;47;20217;-79
2022/04/01 20:46:44;;;;;;;1.00;0.90;;;;;;;-146.23;100.00;72967.59;2615013;31;20677;-82
2022/04/01 20:49:19;;;;;;;4.23;0.50;;;;;;;-146.23;100.00;72967.59;2613406;47;20180;-82
2022/04/01 20:52:03;;;;;;;1.00;1.00;;;;;;;-146.23;100.00;72967.59;2613533;54;20164;-81
2022/04/01 20:57:43;;;;;;;0.87;0.87;;;;;;;-146.23;100.00;72967.59;2614232;47;20118;-82
2022/04/01 21:32:43;;;;;;;1.00;0.90;;;;;;;-146.23;100.00;72967.59;2612999;47;20145;-79
2022/04/01 21:35:13;;;;;;;0.80;0.80;;;;;;;-146.23;100.00;72967.59;2613502;47;20173;-79
2022/04/01 21:37:42;;;;;;;1.30;1.30;;;;;;;-146.23;100.00;72967.59;2614546;47;20161;-79
2022/04/01 21:40:12;;;;;;;4.67;1.43;;;;;;;-146.23;100.00;72967.59;2617358;47;20177;-79
2022/04/01 21:42:41;;;;;;;0.83;0.83;;;;;;;-146.23;100.00;72967.59;2616400;47;20164;-79
2022/04/01 21:45:11;;;;;;;1.33;1.23;;;;;;;-146.23;100.00;72967.59;2615509;54;20173;-79
2022/04/01 21:47:42;;;;;;;0.77;0.77;;;;;;;-146.23;100.00;72967.59;2615710;39;21000;-79
2022/04/01 21:50:12;;;;;;;1.40;1.40;;;;;;;-146.23;100.00;72967.59;2615279;54;20688;-78
2022/04/01 21:52:40;;;;;;;0.77;0.77;;;;;;;-146.23;100.00;72967.59;2615207;47;20186;-79
2022/04/01 21:55:10;;;;;;;3.53;1.20;;;;;;;-146.23;100.00;72967.59;2615023;47;20169;-79
2022/04/01 21:57:38;;;;;;;2.20;1.67;;;;;;;-146.23;100.00;72967.59;2615393;54;20180;-79
2022/04/01 22:00:49;;;;;;;0.83;0.83;;;;;;;-146.23;100.00;72967.59;2615802;54;20295;-79
2022/04/01 22:03:22;;;;;;;2.93;0.50;;;;;;;-146.23;100.00;72967.59;2616178;47;20218;-79
2022/04/01 22:05:50;;;;;;;0.90;0.90;;;;;;;-146.23;100.00;72967.59;2615899;47;20687;-79
2022/04/01 22:08:19;;;;;;;1.43;1.33;;;;;;;-146.23;100.00;72967.59;2616538;39;20563;-79
2022/04/01 22:10:48;;;;;;;3.13;1.10;;;;;;;-146.23;100.00;72967.59;2615787;47;20178;-79
2022/04/01 22:13:17;;;;;;;0.80;0.80;;;;;;;-146.23;100.00;72967.59;2616010;54;20152;-79
2022/04/01 22:15:45;;;;;;;1.27;1.20;;;;;;;-146.23;100.00;72967.59;2616940;47;20172;-79
2022/04/01 22:18:14;;;;;;;1.83;1.73;;;;;;;-146.23;100.00;72967.59;2616556;47;20165;-80
2022/04/01 22:20:46;;;;;;;1.20;1.07;;;;;;;-146.23;100.00;72967.59;2616846;54;20160;-80
2022/04/01 22:23:14;;;;;;;0.97;0.97;;;;;;;-146.23;100.00;72967.59;2616843;54;20194;-78
2022/04/01 22:25:43;;;;;;;1.33;0.80;;;;;;;-146.23;100.00;72967.59;2619230;47;20165;-78
2022/04/01 22:28:12;;;;;;;4.50;1.25;;;;;;;-146.23;100.00;72967.59;2621811;54;20349;-78
2022/04/01 22:30:40;;;;;;;0.63;0.63;;;;;;;-146.23;100.00;72967.59;2629022;47;20172;-80
2022/04/01 22:33:09;;;;;;;0.63;0.63;;;;;;;-146.23;100.00;72967.59;2628631;46;20187;-78
2022/04/01 22:35:39;;;;;;;0.80;0.80;;;;;;;-146.23;100.00;72967.59;2616842;46;20157;-79
2022/04/01 22:38:11;;;;;;;1.20;1.20;;;;;;;-146.23;100.00;72967.59;2617424;47;20172;-78
2022/04/01 22:40:40;;;;;;;0.80;0.80;;;;;;;-146.23;100.00;72967.59;2616646;39;20588;-79
2022/04/01 22:43:09;;;;;;;1.47;0.80;;;;;;;-146.23;100.00;72967.59;2616659;54;20173;-78
